Time;durP1;ratioP1;P1;durP2;ratioP2;P2;SDS_P1;SDS_P2;PMS_P1;PMS_P2;Temp;Humidity;BMP_temperature;BMP_pressure;BME280_temperature;BME280_humidity;BME280_pressure;Samples;Min_cycle;Max_cycle;Signal;HPM_P1;HPM_P2
2023/12/14 00:01:24;;;;;;;3.73;1.40;;;;;3.80;92907.00;;;;7398967;19;20483;-85
2023/12/14 00:03:54;;;;;;;1.50;1.20;;;;;3.90;92914.00;;;;7402975;19;20141;-82
2023/12/14 00:06:22;;;;;;;2.43;1.33;;;;;3.90;92918.00;;;;7399604;19;20144;-85
2023/12/14 00:08:56;;;;;;;1.63;1.23;;;;;3.90;92912.00;;;;7399400;19;20504;-83
2023/12/14 00:11:30;;;;;;;1.50;1.20;;;;;4.00;92916.00;;;;7399563;19;20585;-83
2023/12/14 00:14:05;;;;;;;4.37;1.40;;;;;3.80;92913.00;;;;7397280;19;20147;-83
2023/12/14 00:16:37;;;;;;;3.50;1.43;;;;;3.90;92914.00;;;;7400233;19;20125;-83
2023/12/14 00:19:13;;;;;;;2.10;1.47;;;;;3.70;92932.00;;;;7398696;19;20145;-81
2023/12/14 00:21:41;;;;;;;1.27;1.10;;;;;3.60;92916.00;;;;7398420;19;20143;-83
2023/12/14 00:24:15;;;;;;;4.20;1.20;;;;;3.50;92920.00;;;;7398981;19;20153;-82
2023/12/14 00:26:42;;;;;;;3.07;1.20;;;;;3.30;92934.00;;;;7398619;19;20608;-82
2023/12/14 00:29:17;;;;;;;1.53;1.00;;;;;3.60;92932.00;;;;7397791;19;20489;-82
2023/12/14 00:31:44;;;;;;;4.20;1.40;;;;;3.60;92938.00;;;;7397976;19;20148;-83
2023/12/14 00:34:19;;;;;;;1.47;1.37;;;;;3.70;92946.00;;;;7399590;19;20139;-84
2023/12/14 00:36:46;;;;;;;1.70;1.00;;;;;3.70;92944.00;;;;7399487;19;20600;-83
2023/12/14 00:39:14;;;;;;;4.10;1.33;;;;;3.60;92947.00;;;;7399207;19;20143;-84
2023/12/14 00:41:48;;;;;;;3.30;1.40;;;;;3.40;92948.00;;;;7396992;19;20145;-83
2023/12/14 00:44:20;;;;;;;1.63;1.30;;;;;3.50;92956.00;;;;7398330;19;20164;-84
2023/12/14 00:46:47;;;;;;;2.03;1.07;;;;;3.50;92958.00;;;;7396051;19;20172;-81
2023/12/14 00:49:22;;;;;;;1.47;1.17;;;;;3.50;92962.00;;;;7396969;19;20170;-82
2023/12/14 00:51:49;;;;;;;1.83;1.20;;;;;3.50;92968.00;;;;7398853;19;20139;-82
2023/12/14 00:54:24;;;;;;;1.20;1.00;;;;;3.50;92971.00;;;;7398750;19;20156;-83
2023/12/14 00:56:51;;;;;;;6.73;1.60;;;;;3.50;92965.00;;;;7397471;19;20642;-83
2023/12/14 00:59:29;;;;;;;1.50;1.13;;;;;3.50;92967.00;;;;7398016;19;20127;-81
2023/12/14 01:01:56;;;;;;;3.57;1.07;;;;;3.50;92978.00;;;;7395897;19;20617;-82
2023/12/14 01:04:32;;;;;;;1.70;1.10;;;;;3.50;92974.00;;;;7396878;19;20204;-82
2023/12/14 01:07:00;;;;;;;4.20;1.13;;;;;3.60;92980.00;;;;7398141;19;20140;-82
2023/12/14 01:09:35;;;;;;;4.60;1.20;;;;;3.60;92978.00;;;;7396998;19;20204;-84
2023/12/14 01:12:03;;;;;;;0.93;0.93;;;;;3.70;92992.00;;;;7398764;19;20140;-86
2023/12/14 01:14:31;;;;;;;3.10;0.90;;;;;3.70;92991.00;;;;7395584;19;20628;-84
2023/12/14 01:17:05;;;;;;;3.03;0.93;;;;;3.90;92998.00;;;;7396546;19;20148;-84
2023/12/14 01:19:45;;;;;;;2.07;0.80;;;;;3.70;93002.00;;;;7397432;19;20148;-85
2023/12/14 01:22:23;;;;;;;2.67;1.00;;;;;3.70;93017.00;;;;7396846;19;20221;-86
2023/12/14 01:24:56;;;;;;;3.30;1.10;;;;;3.70;93017.00;;;;7399249;19;20129;-84
2023/12/14 01:27:33;;;;;;;3.70;1.07;;;;;3.70;93011.00;;;;7400144;19;20137;-85
2023/12/14 01:30:07;;;;;;;1.80;1.00;;;;;3.70;93019.00;;;;7398446;19;20137;-85
2023/12/14 01:32:35;;;;;;;1.40;1.10;;;;;3.80;93033.00;;;;7396695;19;20691;-84
2023/12/14 01:35:04;;;;;;;2.63;1.00;;;;;3.80;93034.00;;;;7396718;19;20837;-81
2023/12/14 01:37:38;;;;;;;2.03;1.10;;;;;3.80;93029.00;;;;7396670;19;20178;-83
2023/12/14 01:40:13;;;;;;;3.73;1.30;;;;;3.80;93043.00;;;;7397302;19;20149;-84
2023/12/14 01:42:47;;;;;;;1.57;1.07;;;;;3.80;93042.00;;;;7402357;19;20148;-83
2023/12/14 01:45:27;;;;;;;1.43;1.00;;;;;3.80;93034.00;;;;7404727;19;20132;-85
2023/12/14 01:48:01;;;;;;;33.30;2.87;;;;;3.80;93052.00;;;;7404360;19;20136;-82
2023/12/14 01:50:36;;;;;;;3.03;1.00;;;;;3.80;93042.00;;;;7405250;19;20135;-84
2023/12/14 01:53:04;;;;;;;42.83;3.77;;;;;3.70;93048.00;;;;7403140;19;20137;-78
2023/12/14 01:55:31;;;;;;;28.73;3.63;;;;;3.70;93058.00;;;;7404918;19;20473;-78
2023/12/14 01:58:06;;;;;;;85.03;4.80;;;;;3.70;93065.00;;;;7402541;19;20595;-78
2023/12/14 02:00:52;;;;;;;148.73;10.03;;;;;3.70;93066.00;;;;7402563;19;20583;-77
2023/12/14 02:03:26;;;;;;;170.10;7.00;;;;;3.70;93067.00;;;;7402817;19;20172;-77
2023/12/14 02:06:01;;;;;;;14.33;1.57;;;;;3.70;93074.00;;;;7402377;19;20136;-77
2023/12/14 02:08:31;;;;;;;0.80;0.80;;;;;3.70;93078.00;;;;7403610;19;20495;-78
2023/12/14 02:11:05;;;;;;;1.37;1.00;;;;;3.70;93075.00;;;;7403947;19;20145;-78
2023/12/14 02:13:40;;;;;;;4.50;1.10;;;;;3.80;93073.00;;;;7401875;19;20497;-77
2023/12/14 02:16:16;;;;;;;2.60;1.13;;;;;3.80;93080.00;;;;7402204;19;20147;-79
2023/12/14 02:18:50;;;;;;;5.13;1.20;;;;;3.70;93076.00;;;;7403741;19;20152;-77
2023/12/14 02:21:22;;;;;;;1.70;1.50;;;;;3.80;93078.00;;;;7403046;19;20144;-76
2023/12/14 02:23:54;;;;;;;6.23;1.37;;;;;3.70;93079.00;;;;7402674;19;20475;-78
2023/12/14 02:26:28;;;;;;;4.27;1.50;;;;;3.60;93074.00;;;;7401600;19;20141;-79
2023/12/14 02:28:55;;;;;;;4.60;1.63;;;;;3.60;93073.00;;;;7403203;19;20148;-78
2023/12/14 02:31:30;;;;;;;3.57;1.57;;;;;3.70;93079.00;;;;7402341;19;20615;-77
2023/12/14 02:33:58;;;;;;;2.50;1.53;;;;;3.80;93073.00;;;;7402605;19;20222;-76
2023/12/14 02:36:25;;;;;;;3.77;1.90;;;;;3.80;93075.00;;;;7402647;19;20172;-77
2023/12/14 02:39:00;;;;;;;4.20;1.97;;;;;3.60;93079.00;;;;7401856;19;20140;-77
2023/12/14 02:41:28;;;;;;;3.93;1.90;;;;;3.50;93084.00;;;;7402717;19;20449;-77
2023/12/14 02:44:02;;;;;;;4.20;1.90;;;;;3.50;93080.00;;;;7401118;19;20174;-78
2023/12/14 02:46:36;;;;;;;2.80;2.10;;;;;3.70;93081.00;;;;7399873;19;20571;-79
2023/12/14 02:49:11;;;;;;;2.37;1.80;;;;;3.70;93095.00;;;;7402450;19;20141;-78
2023/12/14 02:51:38;;;;;;;3.53;2.00;;;;;3.70;93091.00;;;;7402584;19;20167;-78
2023/12/14 02:54:13;;;;;;;4.27;2.17;;;;;3.80;93092.00;;;;7402202;19;20595;-77
2023/12/14 02:56:47;;;;;;;5.50;2.40;;;;;3.70;93099.00;;;;7403426;19;20160;-78
2023/12/14 02:59:21;;;;;;;2.83;2.50;;;;;3.90;93097.00;;;;7403606;19;20532;-77
2023/12/14 03:01:52;;;;;;;5.07;2.20;;;;;3.90;93102.00;;;;7401991;19;20133;-77
2023/12/14 03:04:29;;;;;;;5.33;2.43;;;;;3.90;93106.00;;;;7402951;19;20136;-77
2023/12/14 03:06:56;;;;;;;4.33;2.00;;;;;3.90;93112.00;;;;7401774;19;20144;-76
2023/12/14 03:09:24;;;;;;;3.00;2.37;;;;;3.90;93122.00;;;;7402666;19;20137;-80
2023/12/14 03:12:00;;;;;;;5.27;2.33;;;;;3.90;93122.00;;;;7401925;19;20136;-78
2023/12/14 03:14:33;;;;;;;2.40;2.10;;;;;3.90;93127.00;;;;7399754;19;20168;-77
2023/12/14 03:17:12;;;;;;;2.67;1.73;;;;;3.90;93127.00;;;;7395571;19;20140;-79
2023/12/14 03:19:43;;;;;;;6.57;2.10;;;;;3.90;93127.00;;;;7401626;19;20140;-76
2023/12/14 03:22:18;;;;;;;2.10;1.77;;;;;3.90;93137.00;;;;7400903;19;20140;-78
2023/12/14 03:24:46;;;;;;;2.30;1.70;;;;;3.90;93133.00;;;;7401499;19;20143;-76
2023/12/14 03:27:14;;;;;;;2.57;2.00;;;;;3.90;93139.00;;;;7402014;19;20596;-77
2023/12/14 03:29:49;;;;;;;3.80;2.03;;;;;3.90;93151.00;;;;7402366;19;20134;-77
2023/12/14 03:32:16;;;;;;;3.87;1.87;;;;;4.00;93152.00;;;;7397124;19;20148;-78
2023/12/14 03:34:50;;;;;;;2.97;1.80;;;;;4.10;93152.00;;;;7400015;19;20140;-78
2023/12/14 03:37:18;;;;;;;2.10;1.83;;;;;4.00;93156.00;;;;7401046;19;20552;-77
2023/12/14 03:39:55;;;;;;;3.13;1.90;;;;;4.10;93161.00;;;;7401114;19;20148;-78
2023/12/14 03:42:29;;;;;;;3.33;2.00;;;;;4.10;93160.00;;;;7399522;19;20209;-77
2023/12/14 03:44:57;;;;;;;2.70;1.70;;;;;4.10;93155.00;;;;7402466;19;20137;-76
2023/12/14 03:47:27;;;;;;;3.30;1.63;;;;;4.10;93162.00;;;;7399330;19;20216;-78
2023/12/14 03:50:10;;;;;;;2.53;1.73;;;;;4.10;93168.00;;;;7401018;19;20194;-78
2023/12/14 03:52:40;;;;;;;1.30;1.20;;;;;4.20;93168.00;;;;7400935;19;20148;-77
2023/12/14 03:55:15;;;;;;;2.30;1.30;;;;;4.20;93179.00;;;;7400602;19;20133;-77
2023/12/14 03:57:43;;;;;;;1.70;1.40;;;;;4.10;93187.00;;;;7400115;19;20204;-78
2023/12/14 04:00:17;;;;;;;2.27;1.50;;;;;4.10;93193.00;;;;7400243;19;20161;-78
2023/12/14 04:02:51;;;;;;;1.37;1.20;;;;;4.10;93188.00;;;;7397656;19;20140;-78
2023/12/14 04:05:25;;;;;;;1.60;1.30;;;;;4.40;93204.00;;;;7397352;19;20124;-78
2023/12/14 04:08:02;;;;;;;2.43;1.10;;;;;4.30;93203.00;;;;7398785;19;20588;-79
2023/12/14 04:10:39;;;;;;;3.43;1.43;;;;;4.20;93202.00;;;;7399641;19;20157;-78
2023/12/14 04:13:24;;;;;;;2.90;1.20;;;;;4.10;93208.00;;;;7400168;19;20524;-79
2023/12/14 04:15:58;;;;;;;7.10;1.57;;;;;4.10;93217.00;;;;7399559;19;20161;-77
2023/12/14 04:18:28;;;;;;;1.67;1.30;;;;;4.10;93217.00;;;;7399848;19;20129;-77
2023/12/14 04:21:02;;;;;;;2.97;1.13;;;;;4.20;93215.00;;;;7399270;19;20161;-77
2023/12/14 04:23:39;;;;;;;1.30;1.10;;;;;4.20;93224.00;;;;7397742;19;20128;-80
2023/12/14 04:26:09;;;;;;;1.70;1.10;;;;;4.20;93226.00;;;;7398041;19;20593;-79
2023/12/14 04:28:46;;;;;;;1.33;1.23;;;;;4.20;93230.00;;;;7399179;19;20140;-77
2023/12/14 04:31:20;;;;;;;1.83;1.30;;;;;4.20;93232.00;;;;7400536;19;20136;-78
2023/12/14 04:33:47;;;;;;;1.97;1.67;;;;;4.20;93234.00;;;;7399428;19;20140;-77
2023/12/14 04:36:22;;;;;;;4.27;2.00;;;;;4.20;93239.00;;;;7398738;19;20136;-78
2023/12/14 04:38:50;;;;;;;12.30;2.73;;;;;4.10;93245.00;;;;7398418;19;20627;-78
2023/12/14 04:41:24;;;;;;;4.60;2.30;;;;;4.10;93247.00;;;;7399374;19;20520;-78
2023/12/14 04:43:52;;;;;;;3.30;2.10;;;;;4.10;93256.00;;;;7397132;19;20145;-80
2023/12/14 04:46:33;;;;;;;36.67;3.63;;;;;4.00;93247.00;;;;7399176;19;20148;-77
2023/12/14 04:49:07;;;;;;;8.40;2.13;;;;;4.30;93256.00;;;;7397255;19;20193;-78
2023/12/14 04:51:42;;;;;;;2.50;1.63;;;;;4.10;93267.00;;;;7399402;19;20160;-78
2023/12/14 04:54:10;;;;;;;4.03;2.17;;;;;4.20;93264.00;;;;7397350;19;20157;-79
2023/12/14 04:56:47;;;;;;;1.80;1.60;;;;;4.10;93270.00;;;;7398797;19;20145;-79
2023/12/14 04:59:14;;;;;;;3.93;1.60;;;;;4.10;93266.00;;;;7396586;19;20144;-79
2023/12/14 05:01:42;;;;;;;15.83;4.13;;;;;4.10;93280.00;;;;7397866;19;20142;-78
2023/12/14 05:04:17;;;;;;;4.93;2.67;;;;;4.10;93281.00;;;;7396707;19;20128;-77
2023/12/14 05:06:44;;;;;;;8.57;3.33;;;;;4.00;93285.00;;;;7397538;19;20579;-77
2023/12/14 05:09:19;;;;;;;1.67;1.50;;;;;4.10;93293.00;;;;7398719;19;20138;-78
2023/12/14 05:11:52;;;;;;;1.90;1.43;;;;;4.10;93298.00;;;;7398239;19;20144;-77
2023/12/14 05:14:20;;;;;;;1.57;1.43;;;;;4.10;93298.00;;;;7396429;19;20173;-77
2023/12/14 05:16:54;;;;;;;1.40;1.20;;;;;4.10;93295.00;;;;7404564;19;20635;-78
2023/12/14 05:19:21;;;;;;;1.30;1.10;;;;;4.20;93307.00;;;;7404987;19;20160;-77
2023/12/14 05:21:57;;;;;;;1.17;1.00;;;;;4.10;93308.00;;;;7405222;19;20603;-79
2023/12/14 05:24:31;;;;;;;0.97;0.90;;;;;4.10;93326.00;;;;7404562;19;20180;-77
2023/12/14 05:26:58;;;;;;;2.00;1.10;;;;;4.10;93324.00;;;;7407592;19;20485;-77
2023/12/14 05:29:40;;;;;;;1.10;0.93;;;;;4.10;93323.00;;;;7405160;19;20160;-77
2023/12/14 05:32:14;;;;;;;1.00;0.80;;;;;4.20;93332.00;;;;7404872;19;20615;-77
2023/12/14 05:34:50;;;;;;;1.03;0.77;;;;;4.00;93336.00;;;;7404769;19;20137;-77
2023/12/14 05:37:20;;;;;;;0.43;0.43;;;;;4.30;93334.00;;;;7405866;19;20145;-77
2023/12/14 05:39:54;;;;;;;2.10;0.60;;;;;4.20;93343.00;;;;7405408;19;20163;-77
2023/12/14 05:42:24;;;;;;;0.60;0.60;;;;;4.20;93346.00;;;;7404610;19;20137;-77
2023/12/14 05:44:59;;;;;;;0.40;0.40;;;;;4.10;93356.00;;;;7404561;19;20157;-77
2023/12/14 05:47:36;;;;;;;0.40;0.37;;;;;4.10;93353.00;;;;7405076;19;20173;-77
2023/12/14 05:50:12;;;;;;;0.40;0.40;;;;;4.10;93362.00;;;;7405179;19;20125;-77
2023/12/14 05:52:46;;;;;;;0.47;0.43;;;;;4.10;93366.00;;;;7398633;19;21015;-78
2023/12/14 05:55:14;;;;;;;0.27;0.27;;;;;4.10;93363.00;;;;7389583;19;20144;-78
2023/12/14 05:57:49;;;;;;;0.60;0.60;;;;;4.00;93366.00;;;;7391487;19;20624;-80
2023/12/14 06:00:17;;;;;;;0.30;0.30;;;;;4.00;93373.00;;;;7391375;19;20155;-77
2023/12/14 06:03:01;;;;;;;0.20;0.20;;;;;4.20;93381.00;;;;7391882;19;20627;-80
2023/12/14 06:05:31;;;;;;;0.30;0.30;;;;;4.10;93379.00;;;;7392634;19;20145;-78
2023/12/14 06:08:05;;;;;;;0.70;0.40;;;;;4.10;93393.00;;;;7391504;19;20156;-79
2023/12/14 06:10:39;;;;;;;0.20;0.20;;;;;4.10;93396.00;;;;7392327;19;20197;-78
2023/12/14 06:13:10;;;;;;;0.57;0.30;;;;;4.20;93396.00;;;;7391332;19;20184;-79
2023/12/14 06:15:43;;;;;;;0.23;0.23;;;;;4.10;93397.00;;;;7391290;19;20151;-79
2023/12/14 06:18:11;;;;;;;0.50;0.30;;;;;4.20;93401.00;;;;7391777;19;20160;-79
2023/12/14 06:20:47;;;;;;;0.10;0.10;;;;;4.20;93401.00;;;;7391438;19;20125;-79
2023/12/14 06:23:21;;;;;;;0.33;0.33;;;;;4.10;93411.00;;;;7390306;19;20135;-78
2023/12/14 06:25:56;;;;;;;0.53;0.40;;;;;4.10;93400.00;;;;7390305;19;20148;-80
2023/12/14 06:28:23;;;;;;;0.50;0.30;;;;;4.20;93417.00;;;;7388999;19;20181;-78
2023/12/14 06:30:58;;;;;;;0.37;0.37;;;;;4.20;93422.00;;;;7392028;19;20139;-77
2023/12/14 06:33:32;;;;;;;0.80;0.30;;;;;4.20;93429.00;;;;7389999;19;20607;-77
2023/12/14 06:36:09;;;;;;;0.50;0.50;;;;;4.20;93433.00;;;;7390249;19;20149;-77
2023/12/14 06:38:44;;;;;;;2.57;0.80;;;;;4.20;93443.00;;;;7392790;19;20536;-77
2023/12/14 06:41:23;;;;;;;1.03;0.90;;;;;4.20;93446.00;;;;7390730;19;20588;-77
2023/12/14 06:43:52;;;;;;;1.50;1.30;;;;;4.20;93447.00;;;;7390819;19;20148;-76
2023/12/14 06:46:38;;;;;;;4.53;2.10;;;;;4.40;93452.00;;;;7390191;19;20168;-77
2023/12/14 06:49:13;;;;;;;4.70;2.83;;;;;4.40;93448.00;;;;7393202;19;20468;-76
2023/12/14 06:51:51;;;;;;;14.23;3.10;;;;;4.50;93462.00;;;;7393183;19;20133;-76
2023/12/14 06:54:19;;;;;;;5.57;3.03;;;;;4.50;93466.00;;;;7391433;19;20224;-78
2023/12/14 06:56:53;;;;;;;5.33;3.43;;;;;4.40;93477.00;;;;7391171;19;20151;-80
2023/12/14 06:59:27;;;;;;;4.70;3.13;;;;;4.30;93475.00;;;;7390427;19;20176;-78
2023/12/14 07:02:02;;;;;;;6.57;3.03;;;;;4.40;93488.00;;;;7391358;19;20155;-78
2023/12/14 07:04:29;;;;;;;4.43;3.00;;;;;4.40;93495.00;;;;7392738;19;20138;-78
2023/12/14 07:07:04;;;;;;;5.97;4.00;;;;;4.40;93493.00;;;;7390495;19;20162;-76
2023/12/14 07:09:38;;;;;;;6.13;4.10;;;;;4.50;93500.00;;;;7389551;19;20148;-78
2023/12/14 07:12:13;;;;;;;8.53;4.27;;;;;4.50;93502.00;;;;7390596;19;20148;-78
2023/12/14 07:14:47;;;;;;;7.30;5.20;;;;;4.60;93500.00;;;;7388583;19;20128;-79
2023/12/14 07:17:21;;;;;;;10.30;5.60;;;;;4.60;93517.00;;;;7390752;19;20132;-79
2023/12/14 07:19:51;;;;;;;11.87;5.97;;;;;4.60;93515.00;;;;7389642;19;20144;-78
2023/12/14 07:22:27;;;;;;;9.27;6.10;;;;;4.50;93528.00;;;;7391125;19;20139;-77
2023/12/14 07:24:54;;;;;;;13.27;6.63;;;;;4.50;93533.00;;;;7388825;19;20584;-79
2023/12/14 07:27:29;;;;;;;12.10;6.60;;;;;4.60;93531.00;;;;7389816;19;20647;-77
2023/12/14 07:30:13;;;;;;;7.27;4.87;;;;;4.70;93538.00;;;;7388565;19;20152;-75
2023/12/14 07:32:47;;;;;;;8.87;3.60;;;;;4.40;93544.00;;;;7387640;19;20140;-76
2023/12/14 07:35:21;;;;;;;5.47;3.50;;;;;4.30;93545.00;;;;7388057;19;20148;-75
2023/12/14 07:37:49;;;;;;;3.90;2.87;;;;;4.20;93550.00;;;;7388461;19;20128;-77
2023/12/14 07:40:23;;;;;;;6.17;2.90;;;;;4.30;93551.00;;;;7390123;19;20475;-77
2023/12/14 07:42:51;;;;;;;4.87;3.00;;;;;4.00;93554.00;;;;7387471;19;20200;-78
2023/12/14 07:45:25;;;;;;;7.20;2.67;;;;;3.90;93560.00;;;;7389724;19;20129;-76
2023/12/14 07:48:04;;;;;;;4.77;2.40;;;;;3.90;93558.00;;;;7387799;19;20176;-76
2023/12/14 07:50:38;;;;;;;5.00;2.60;;;;;4.10;93537.00;;;;7389604;19;20155;-77
2023/12/14 07:53:12;;;;;;;4.50;2.20;;;;;4.20;93567.00;;;;7389727;19;20148;-76
2023/12/14 07:55:39;;;;;;;5.33;2.77;;;;;4.10;93562.00;;;;7388256;19;20131;-77
2023/12/14 07:58:14;;;;;;;7.53;2.43;;;;;4.10;93577.00;;;;7389116;19;20147;-76
2023/12/14 08:00:50;;;;;;;5.13;2.20;;;;;4.10;93578.00;;;;7387725;19;20604;-76
2023/12/14 08:03:24;;;;;;;5.80;2.40;;;;;4.20;93577.00;;;;7387923;19;20156;-77
2023/12/14 08:05:59;;;;;;;3.03;1.90;;;;;4.20;93584.00;;;;7383889;19;20170;-76
2023/12/14 08:08:27;;;;;;;5.20;1.70;;;;;4.20;93586.00;;;;7386176;19;20507;-74
2023/12/14 08:11:03;;;;;;;7.13;2.23;;;;;4.10;93592.00;;;;7388028;19;20303;-75
2023/12/14 08:13:30;;;;;;;6.13;2.20;;;;;4.20;93596.00;;;;7387140;19;20192;-74
2023/12/14 08:15:58;;;;;;;8.43;1.90;;;;;4.20;93606.00;;;;7386858;19;20148;-74
2023/12/14 08:18:32;;;;;;;6.13;2.03;;;;;4.10;93603.00;;;;7386482;19;20151;-76
2023/12/14 08:21:01;;;;;;;7.43;1.97;;;;;4.20;93615.00;;;;7385801;19;20466;-75
2023/12/14 08:23:41;;;;;;;4.10;1.77;;;;;4.30;93613.00;;;;7388095;19;20136;-77
2023/12/14 08:26:11;;;;;;;3.97;1.40;;;;;4.30;93618.00;;;;7387411;19;20161;-74
2023/12/14 08:28:45;;;;;;;3.40;1.43;;;;;4.30;93624.00;;;;7387222;19;21096;-74
2023/12/14 08:31:18;;;;;;;7.73;1.67;;;;;4.40;93623.00;;;;7384787;19;20139;-77
2023/12/14 08:33:52;;;;;;;4.70;1.87;;;;;4.40;93639.00;;;;7387851;19;20133;-77
2023/12/14 08:36:22;;;;;;;2.90;2.17;;;;;4.40;93647.00;;;;7384338;19;20153;-77
2023/12/14 08:38:57;;;;;;;7.20;1.97;;;;;4.50;93652.00;;;;7386369;19;20219;-76
2023/12/14 08:41:25;;;;;;;4.40;1.90;;;;;4.60;93664.00;;;;7385326;19;20148;-77
2023/12/14 08:43:56;;;;;;;5.47;1.97;;;;;4.70;93667.00;;;;7380839;19;20617;-74
2023/12/14 08:46:42;;;;;;;5.10;2.07;;;;;4.70;93673.00;;;;7385346;19;20585;-76
2023/12/14 08:49:23;;;;;;;4.03;1.93;;;;;4.40;93677.00;;;;7385587;19;21564;-77
2023/12/14 08:51:59;;;;;;;3.57;1.90;;;;;4.60;93687.00;;;;7384477;19;20166;-74
2023/12/14 08:54:28;;;;;;;2.20;1.87;;;;;4.70;93689.00;;;;7384175;19;20136;-74
2023/12/14 08:57:08;;;;;;;6.30;1.93;;;;;4.80;93709.00;;;;7384207;19;20156;-75
2023/12/14 08:59:40;;;;;;;4.30;2.10;;;;;4.80;93710.00;;;;7384240;19;20671;-73
2023/12/14 09:02:15;;;;;;;5.77;2.27;;;;;5.00;93712.00;;;;7383987;19;20226;-77
2023/12/14 09:04:43;;;;;;;4.93;2.13;;;;;5.10;93710.00;;;;7382510;19;20531;-73
2023/12/14 09:07:13;;;;;;;3.60;2.30;;;;;5.10;93721.00;;;;7382997;19;20165;-75
2023/12/14 09:09:47;;;;;;;2.37;2.13;;;;;5.10;93719.00;;;;7384553;19;20768;-74
2023/12/14 09:12:21;;;;;;;4.07;2.40;;;;;5.20;93727.00;;;;7383143;19;20135;-73
2023/12/14 09:14:49;;;;;;;4.93;2.67;;;;;5.20;93727.00;;;;7382692;19;20155;-76
2023/12/14 09:17:23;;;;;;;3.77;2.47;;;;;5.20;93723.00;;;;7383152;19;20155;-73
2023/12/14 09:19:51;;;;;;;5.47;2.80;;;;;5.20;93737.00;;;;7382177;19;20619;-74
2023/12/14 09:22:26;;;;;;;4.60;3.47;;;;;5.20;93743.00;;;;7384474;19;20140;-72
2023/12/14 09:24:54;;;;;;;3.77;2.57;;;;;5.30;93733.00;;;;7382196;19;20152;-75
2023/12/14 09:27:29;;;;;;;4.17;3.13;;;;;5.90;93754.00;;;;7381668;19;20593;-72
2023/12/14 09:30:04;;;;;;;6.33;3.53;;;;;5.80;93753.00;;;;7383013;19;20559;-71
2023/12/14 09:32:39;;;;;;;4.37;3.23;;;;;6.00;93764.00;;;;7381814;19;20152;-76
2023/12/14 09:35:08;;;;;;;5.27;2.87;;;;;5.70;93775.00;;;;7382598;19;20498;-73
2023/12/14 09:37:43;;;;;;;3.80;3.33;;;;;5.90;93772.00;;;;7384134;19;20152;-73
2023/12/14 09:40:18;;;;;;;5.70;3.03;;;;;5.90;93770.00;;;;7382980;19;20158;-71
2023/12/14 09:42:55;;;;;;;3.60;3.00;;;;;5.90;93776.00;;;;7384406;19;20592;-74
2023/12/14 09:45:31;;;;;;;7.43;2.93;;;;;5.80;93778.00;;;;7384947;19;20153;-73
2023/12/14 09:48:06;;;;;;;3.03;2.43;;;;;5.70;93785.00;;;;7382932;19;20616;-72
2023/12/14 09:50:41;;;;;;;4.67;2.63;;;;;6.40;93777.00;;;;7382697;19;20164;-74
2023/12/14 09:53:09;;;;;;;5.93;2.73;;;;;7.60;93778.00;;;;7382606;19;20822;-73
2023/12/14 09:55:44;;;;;;;3.30;2.20;;;;;7.10;93782.00;;;;7382101;19;20208;-72
2023/12/14 09:58:12;;;;;;;3.35;2.00;;;;;7.80;93795.00;;;;7379448;19;20188;-74
2023/12/14 10:00:47;;;;;;;3.58;2.10;;;;;8.10;93789.00;;;;7382944;19;20794;-77
2023/12/14 10:03:27;;;;;;;2.58;2.08;;;;;7.20;93787.00;;;;7385825;19;20594;-74
2023/12/14 10:06:03;;;;;;;2.85;2.08;;;;;6.60;93791.00;;;;7388441;19;20132;-72
2023/12/14 10:08:31;;;;;;;2.47;1.95;;;;;5.90;93802.00;;;;7388307;19;20147;-73
2023/12/14 10:11:16;;;;;;;4.30;2.20;;;;;5.80;93803.00;;;;7388828;19;20495;-72
2023/12/14 10:13:57;;;;;;;2.10;1.90;;;;;6.70;93800.00;;;;7386963;19;20176;-73
2023/12/14 10:16:32;;;;;;;3.27;2.10;;;;;7.70;93785.00;;;;7388096;19;20655;-72
2023/12/14 10:19:09;;;;;;;2.88;2.33;;;;;8.10;93794.00;;;;7387279;19;20608;-73
2023/12/14 10:21:37;;;;;;;2.17;1.98;;;;;8.30;93799.00;;;;7389233;19;20207;-74
2023/12/14 10:24:12;;;;;;;5.90;1.90;;;;;7.60;93807.00;;;;7388353;19;20152;-76
2023/12/14 10:26:51;;;;;;;3.65;2.08;;;;;7.40;93810.00;;;;7391298;19;20140;-73
2023/12/14 10:29:24;;;;;;;1.92;1.73;;;;;7.30;93826.00;;;;7390102;19;20228;-74
2023/12/14 10:31:59;;;;;;;2.33;1.83;;;;;6.90;93815.00;;;;7388418;19;20151;-73
2023/12/14 10:34:40;;;;;;;2.22;1.70;;;;;6.70;93831.00;;;;7388259;19;20123;-74
2023/12/14 10:37:08;;;;;;;5.25;1.98;;;;;7.00;93843.00;;;;7389614;19;20648;-76
2023/12/14 10:39:43;;;;;;;6.15;1.95;;;;;6.80;93839.00;;;;7388910;19;20140;-75
2023/12/14 10:42:13;;;;;;;2.92;2.03;;;;;7.10;93844.00;;;;7387925;19;20482;-76
2023/12/14 10:44:55;;;;;;;2.00;1.80;;;;;7.20;93849.00;;;;7387190;19;20133;-75
2023/12/14 10:47:58;;;;;;;2.00;1.67;;;;;7.40;93856.00;;;;7386204;19;20184;-76
2023/12/14 10:50:34;;;;;;;2.40;1.97;;;;;6.70;93850.00;;;;7389908;19;20139;-75
2023/12/14 10:53:09;;;;;;;1.60;1.50;;;;;6.00;93847.00;;;;7387271;19;20466;-75
2023/12/14 10:55:45;;;;;;;2.23;1.80;;;;;5.60;93853.00;;;;7387143;19;20162;-78
2023/12/14 10:58:12;;;;;;;3.23;2.00;;;;;5.00;93855.00;;;;7387653;19;20642;-76
2023/12/14 11:01:01;;;;;;;5.63;2.27;;;;;5.20;93862.00;;;;7387480;19;20157;-75
2023/12/14 11:03:36;;;;;;;3.07;2.40;;;;;5.20;93855.00;;;;7386040;19;20470;-75
2023/12/14 11:06:15;;;;;;;3.97;2.60;;;;;5.80;93833.00;;;;7388806;19;20136;-76
2023/12/14 11:08:52;;;;;;;2.70;2.40;;;;;7.20;93841.00;;;;7387065;19;20156;-75
2023/12/14 11:11:20;;;;;;;3.13;2.83;;;;;8.90;93844.00;;;;7389530;19;20529;-76
2023/12/14 11:13:52;;;;;;;3.70;2.80;;;;;9.80;93843.00;;;;7386667;19;20159;-75
2023/12/14 11:16:28;;;;;;;3.50;3.20;;;;;10.60;93857.00;;;;7387588;19;20495;-78
2023/12/14 11:19:28;;;;;;;2.90;2.30;;;;;9.60;93875.00;;;;7386341;19;20588;-76
2023/12/14 11:22:18;;;;;;;3.30;2.45;;;;;7.70;93881.00;;;;7386426;19;20140;-74
2023/12/14 11:24:53;;;;;;;3.88;2.60;;;;;7.30;93887.00;;;;7385482;19;20488;-76
2023/12/14 11:27:42;;;;;;;2.47;2.17;;;;;6.40;93888.00;;;;7385740;19;20152;-75
2023/12/14 11:30:19;;;;;;;3.38;2.22;;;;;6.00;93888.00;;;;7388141;19;20133;-77
2023/12/14 11:33:01;;;;;;;4.43;2.28;;;;;7.40;93888.00;;;;7385727;19;20156;-79
2023/12/14 11:35:41;;;;;;;3.05;2.65;;;;;7.70;93900.00;;;;7387873;19;20690;-76
2023/12/14 11:38:17;;;;;;;3.20;2.50;;;;;7.70;93896.00;;;;7386353;19;20178;-77
2023/12/14 11:40:46;;;;;;;2.92;2.40;;;;;6.90;93913.00;;;;7386283;19;20156;-77
2023/12/14 11:43:21;;;;;;;3.63;2.70;;;;;6.70;93904.00;;;;7385790;19;20228;-78
2023/12/14 11:45:49;;;;;;;4.72;2.92;;;;;6.60;93901.00;;;;7386497;19;20160;-77
2023/12/14 11:48:29;;;;;;;5.70;2.60;;;;;6.30;93913.00;;;;7385099;19;20166;-78
2023/12/14 11:50:57;;;;;;;3.00;2.67;;;;;5.90;93906.00;;;;7386330;19;20182;-76
2023/12/14 11:53:33;;;;;;;2.87;2.53;;;;;5.90;93911.00;;;;7386538;19;20128;-77
2023/12/14 11:56:07;;;;;;;3.07;2.60;;;;;6.00;93908.00;;;;7385801;19;20648;-76
2023/12/14 11:58:43;;;;;;;5.57;2.47;;;;;6.10;93913.00;;;;7385596;19;20485;-75
2023/12/14 12:01:18;;;;;;;3.83;2.80;;;;;6.00;93919.00;;;;7383882;19;20133;-78
2023/12/14 12:03:53;;;;;;;6.03;3.13;;;;;5.90;93923.00;;;;7384057;19;20148;-76
2023/12/14 12:06:28;;;;;;;4.40;2.93;;;;;6.40;93922.00;;;;7385312;19;20155;-77
2023/12/14 12:09:08;;;;;;;5.60;3.37;;;;;6.20;93916.00;;;;7385066;19;20152;-78
2023/12/14 12:11:36;;;;;;;5.47;3.17;;;;;6.50;93926.00;;;;7385499;19;20491;-77
2023/12/14 12:14:11;;;;;;;4.53;2.67;;;;;6.10;93932.00;;;;7385703;19;20272;-75
2023/12/14 12:16:39;;;;;;;5.13;2.80;;;;;6.00;93940.00;;;;7383859;19;20149;-76
2023/12/14 12:19:12;;;;;;;4.33;2.40;;;;;6.10;93935.00;;;;7385927;19;20184;-76
2023/12/14 12:21:40;;;;;;;2.37;2.13;;;;;5.90;93943.00;;;;7384625;19;20181;-78
2023/12/14 12:24:17;;;;;;;5.83;2.60;;;;;5.70;93937.00;;;;7384640;19;20148;-78
2023/12/14 12:26:55;;;;;;;2.30;2.10;;;;;5.30;93935.00;;;;7384205;19;20474;-76
2023/12/14 12:29:31;;;;;;;2.90;2.20;;;;;5.30;93944.00;;;;7385075;19;20504;-75
2023/12/14 12:31:59;;;;;;;2.77;2.20;;;;;5.20;93942.00;;;;7384923;19;20132;-76
2023/12/14 12:34:27;;;;;;;4.63;2.37;;;;;5.50;93949.00;;;;7384635;19;20152;-73
2023/12/14 12:37:03;;;;;;;3.53;2.30;;;;;5.50;93944.00;;;;7385988;19;20208;-76
2023/12/14 12:39:38;;;;;;;3.43;2.70;;;;;5.50;93938.00;;;;7384194;19;20148;-76
2023/12/14 12:42:13;;;;;;;4.77;3.20;;;;;5.50;93943.00;;;;7386257;19;20132;-75
2023/12/14 12:44:50;;;;;;;3.50;2.90;;;;;5.30;93947.00;;;;7384671;19;20604;-77
2023/12/14 12:47:39;;;;;;;4.60;3.30;;;;;5.10;93942.00;;;;7383031;19;20826;-76
2023/12/14 12:50:16;;;;;;;4.70;3.70;;;;;5.10;93946.00;;;;7384258;19;20629;-74
2023/12/14 12:52:48;;;;;;;4.70;3.63;;;;;5.20;93951.00;;;;7384456;19;20212;-76
2023/12/14 12:55:22;;;;;;;5.90;4.63;;;;;5.20;93957.00;;;;7385213;19;20165;-76
2023/12/14 12:58:04;;;;;;;6.87;4.73;;;;;5.30;93951.00;;;;7385471;19;20152;-74